Time;durP1;ratioP1;P1;durP2;ratioP2;P2;SDS_P1;SDS_P2;PMS_P1;PMS_P2;Temp;Humidity;BMP_temperature;BMP_pressure;BME280_temperature;BME280_humidity;BME280_pressure;Samples;Min_cycle;Max_cycle;Signal;HPM_P1;HPM_P2
2021/11/03 00:00:04;;;;;;;3.67;2.63;;;5.30;98.90;;;;;;4990955;28;20112;-74
2021/11/03 00:02:30;;;;;;;3.10;2.80;;;5.30;99.00;;;;;;4979673;28;20030;-75
2021/11/03 00:04:57;;;;;;;4.53;2.72;;;5.30;99.00;;;;;;5002947;28;20026;-75
2021/11/03 00:07:23;;;;;;;3.97;3.03;;;5.40;99.00;;;;;;4984656;28;20030;-74
2021/11/03 00:09:48;;;;;;;3.35;3.05;;;5.40;98.90;;;;;;5001651;28;20170;-75
2021/11/03 00:12:15;;;;;;;3.33;3.03;;;5.50;98.90;;;;;;4989956;28;20041;-75
2021/11/03 00:14:41;;;;;;;4.57;2.70;;;5.50;98.90;;;;;;4999733;28;20019;-73
2021/11/03 00:17:08;;;;;;;3.83;2.60;;;5.50;98.90;;;;;;4999886;28;20053;-73
2021/11/03 00:19:34;;;;;;;5.10;2.88;;;5.40;98.90;;;;;;4973749;28;20034;-74
2021/11/03 00:22:00;;;;;;;3.08;2.78;;;5.40;98.80;;;;;;4980644;28;20026;-75
2021/11/03 00:24:26;;;;;;;4.53;2.88;;;5.40;98.90;;;;;;4990735;28;20041;-77
2021/11/03 00:26:51;;;;;;;3.58;2.60;;;5.40;98.90;;;;;;4983645;28;20505;-75
2021/11/03 00:29:17;;;;;;;3.15;2.78;;;5.40;98.90;;;;;;4992643;28;20108;-75
2021/11/03 00:31:42;;;;;;;3.30;3.00;;;5.40;98.80;;;;;;5008666;28;20089;-75
2021/11/03 00:34:08;;;;;;;4.43;3.13;;;5.40;98.80;;;;;;4991864;28;20041;-75
2021/11/03 00:36:34;;;;;;;3.40;3.05;;;5.40;98.80;;;;;;4985773;28;20431;-75
2021/11/03 00:39:00;;;;;;;3.40;2.90;;;5.40;98.90;;;;;;4991799;28;20049;-75
2021/11/03 00:41:25;;;;;;;3.58;3.13;;;5.40;99.10;;;;;;4990956;28;20477;-75
2021/11/03 00:43:53;;;;;;;3.03;2.78;;;5.40;98.90;;;;;;4995130;28;20049;-75
2021/11/03 00:46:19;;;;;;;4.35;2.92;;;5.40;98.90;;;;;;4983328;28;20044;-75
2021/11/03 00:48:44;;;;;;;2.83;2.60;;;5.40;98.80;;;;;;5003394;28;20026;-76
2021/11/03 00:51:11;;;;;;;4.68;3.38;;;5.30;98.80;;;;;;4990521;28;20513;-74
2021/11/03 00:53:37;;;;;;;3.58;2.90;;;5.30;98.80;;;;;;4995148;28;20087;-77
2021/11/03 00:56:02;;;;;;;4.20;3.55;;;5.30;98.70;;;;;;5013400;28;20471;-75
2021/11/03 00:58:28;;;;;;;4.28;3.50;;;5.20;98.70;;;;;;4996391;28;20033;-75
2021/11/03 01:00:54;;;;;;;2.78;2.47;;;5.10;98.80;;;;;;4995708;28;20113;-75
2021/11/03 01:03:19;;;;;;;5.70;3.42;;;5.20;99.00;;;;;;4976778;28;20037;-75
2021/11/03 01:05:45;;;;;;;4.97;2.88;;;5.20;98.90;;;;;;5002463;28;20392;-74
2021/11/03 01:08:12;;;;;;;3.38;2.97;;;5.20;98.90;;;;;;4981009;28;20538;-75
2021/11/03 01:10:40;;;;;;;3.33;2.97;;;5.20;98.90;;;;;;4976266;28;20034;-74
2021/11/03 01:13:06;;;;;;;3.42;3.08;;;5.20;98.80;;;;;;4986588;28;20030;-77
2021/11/03 01:15:32;;;;;;;4.35;3.35;;;5.10;98.90;;;;;;4999401;28;20034;-75
2021/11/03 01:17:57;;;;;;;4.93;3.47;;;5.20;99.00;;;;;;4981699;28;20024;-77
2021/11/03 01:20:24;;;;;;;4.10;3.55;;;5.10;99.10;;;;;;4993071;28;20388;-74
2021/11/03 01:22:50;;;;;;;5.88;3.60;;;5.10;98.90;;;;;;4976834;28;20375;-75
2021/11/03 01:25:16;;;;;;;3.63;3.30;;;5.10;98.90;;;;;;4995506;28;20095;-75
2021/11/03 01:27:42;;;;;;;6.57;3.65;;;5.10;98.90;;;;;;5012218;28;20045;-75
2021/11/03 01:30:12;;;;;;;3.30;3.00;;;5.10;98.90;;;;;;4987466;28;20442;-77
2021/11/03 01:32:37;;;;;;;4.40;3.15;;;5.00;98.90;;;;;;4982958;28;20029;-77
2021/11/03 01:35:05;;;;;;;5.20;3.08;;;5.00;98.90;;;;;;4993714;28;20030;-76
2021/11/03 01:37:31;;;;;;;3.45;2.90;;;5.00;98.90;;;;;;4988215;28;20036;-78
2021/11/03 01:39:57;;;;;;;3.72;3.30;;;4.90;99.00;;;;;;4993709;28;20029;-74
2021/11/03 01:42:23;;;;;;;3.40;3.10;;;4.90;99.00;;;;;;4989164;28;20030;-74
2021/11/03 01:44:48;;;;;;;3.58;2.80;;;5.00;99.10;;;;;;4975540;28;20080;-77
2021/11/03 01:47:37;;;;;;;5.00;3.22;;;5.00;99.20;;;;;;4975343;28;20054;-74
2021/11/03 01:50:23;;;;;;;4.03;3.20;;;5.00;99.00;;;;;;5001191;28;20092;-77
2021/11/03 01:52:57;;;;;;;4.35;3.13;;;5.00;99.00;;;;;;5004697;28;20026;-78
2021/11/03 01:55:23;;;;;;;2.97;2.58;;;4.90;98.90;;;;;;4978454;28;20029;-77
2021/11/03 01:58:02;;;;;;;2.70;2.50;;;4.90;98.90;;;;;;4995197;28;20033;-74
2021/11/03 02:00:31;;;;;;;2.55;2.35;;;4.90;99.00;;;;;;4978321;28;20469;-74
2021/11/03 02:03:06;;;;;;;2.90;2.53;;;4.90;99.10;;;;;;5011786;28;20386;-74
2021/11/03 02:05:32;;;;;;;3.85;2.88;;;5.00;99.20;;;;;;4994273;28;20022;-75
2021/11/03 02:07:58;;;;;;;3.03;2.70;;;5.00;99.20;;;;;;4993159;28;20364;-74
2021/11/03 02:10:24;;;;;;;3.30;2.50;;;5.10;99.20;;;;;;5001038;28;20036;-74
2021/11/03 02:12:50;;;;;;;5.95;2.08;;;5.10;99.30;;;;;;4994091;28;20026;-74
2021/11/03 02:15:16;;;;;;;4.15;2.20;;;5.10;99.10;;;;;;4980133;28;20038;-75
2021/11/03 02:17:43;;;;;;;2.60;2.40;;;5.20;99.10;;;;;;4980569;28;20014;-75
2021/11/03 02:20:12;;;;;;;3.20;2.42;;;5.20;99.20;;;;;;4986340;28;20128;-75
2021/11/03 02:23:11;;;;;;;4.03;2.60;;;5.20;99.20;;;;;;4978790;28;20121;-75
2021/11/03 02:25:52;;;;;;;3.05;2.85;;;5.30;99.20;;;;;;5010258;28;20054;-75
2021/11/03 02:28:19;;;;;;;3.53;2.88;;;5.30;99.20;;;;;;4975275;28;20030;-77
2021/11/03 02:30:45;;;;;;;5.20;2.90;;;5.30;99.10;;;;;;5003921;28;20083;-77
2021/11/03 02:33:16;;;;;;;5.10;3.08;;;5.30;99.00;;;;;;5019914;28;20030;-77
2021/11/03 02:35:58;;;;;;;5.10;3.85;;;5.30;99.10;;;;;;5017102;28;20096;-75
2021/11/03 02:38:36;;;;;;;5.00;4.45;;;5.30;98.90;;;;;;4985248;28;20052;-74
2021/11/03 02:41:18;;;;;;;7.22;4.82;;;5.30;98.90;;;;;;4981260;28;20502;-75
2021/11/03 02:44:03;;;;;;;8.23;5.47;;;5.30;99.00;;;;;;4974714;28;20128;-77
2021/11/03 02:46:29;;;;;;;5.82;4.45;;;5.20;98.90;;;;;;4988216;28;20057;-77
2021/11/03 02:48:54;;;;;;;7.00;4.82;;;5.20;98.80;;;;;;4974905;28;20391;-75
2021/11/03 02:51:35;;;;;;;6.00;4.55;;;5.10;98.90;;;;;;4992529;28;20394;-74
2021/11/03 02:54:05;;;;;;;9.23;5.13;;;5.10;99.00;;;;;;4974533;28;20030;-75
2021/11/03 02:56:40;;;;;;;5.80;4.88;;;5.10;99.10;;;;;;4994022;28;20037;-74
2021/11/03 02:59:07;;;;;;;5.38;4.40;;;5.10;99.20;;;;;;4994023;28;20445;-74
2021/11/03 03:01:49;;;;;;;7.20;4.82;;;5.20;99.20;;;;;;4993135;28;20026;-74
2021/11/03 03:04:25;;;;;;;5.60;4.15;;;5.20;99.20;;;;;;4975417;28;20029;-75
2021/11/03 03:06:51;;;;;;;7.28;4.63;;;5.20;99.20;;;;;;4981111;28;20026;-75
2021/11/03 03:09:17;;;;;;;8.68;4.57;;;5.30;99.30;;;;;;4982624;28;20026;-75
2021/11/03 03:11:49;;;;;;;6.70;4.55;;;5.30;99.30;;;;;;4991627;28;20031;-75
2021/11/03 03:14:18;;;;;;;6.03;4.70;;;5.30;99.30;;;;;;4983572;28;20112;-74
2021/11/03 03:16:44;;;;;;;6.32;4.57;;;5.40;99.40;;;;;;4993291;28;20096;-75
2021/11/03 03:19:10;;;;;;;5.43;4.30;;;5.40;99.40;;;;;;5010158;28;20852;-74
2021/11/03 03:21:36;;;;;;;9.95;4.03;;;5.50;99.40;;;;;;4991883;28;20164;-75
2021/11/03 03:24:04;;;;;;;5.85;4.47;;;5.50;99.30;;;;;;4990957;28;20523;-74
2021/11/03 03:26:30;;;;;;;4.55;4.07;;;5.40;99.20;;;;;;4977054;28;20025;-74
2021/11/03 03:28:57;;;;;;;4.35;3.95;;;5.50;99.20;;;;;;4974119;28;20040;-75
2021/11/03 03:31:25;;;;;;;4.78;4.07;;;5.50;99.30;;;;;;4996559;28;20546;-74
2021/11/03 03:33:52;;;;;;;6.40;4.28;;;5.50;99.30;;;;;;4986780;28;20390;-75
2021/11/03 03:36:18;;;;;;;4.30;3.90;;;5.50;99.30;;;;;;5001110;28;20332;-75
2021/11/03 03:38:44;;;;;;;4.78;4.10;;;5.50;99.30;;;;;;4982698;28;20026;-75
2021/11/03 03:41:11;;;;;;;4.75;4.13;;;5.50;99.30;;;;;;4985809;28;20107;-75
2021/11/03 03:43:37;;;;;;;5.05;4.07;;;5.60;99.40;;;;;;5002948;28;20544;-75
2021/11/03 03:46:03;;;;;;;5.38;4.25;;;5.60;99.40;;;;;;4973669;28;20491;-75
2021/11/03 03:48:28;;;;;;;8.63;4.55;;;5.60;99.40;;;;;;4979224;28;20061;-75
2021/11/03 03:50:54;;;;;;;5.70;4.40;;;5.60;99.30;;;;;;4982582;28;20022;-75
2021/11/03 03:53:21;;;;;;;7.03;4.15;;;5.60;99.30;;;;;;4986629;28;20414;-77
2021/11/03 03:55:48;;;;;;;5.72;4.20;;;5.60;99.30;;;;;;4993264;28;20045;-77
2021/11/03 03:58:14;;;;;;;5.28;3.95;;;5.60;99.30;;;;;;4990143;28;20091;-77
2021/11/03 04:00:40;;;;;;;4.82;3.97;;;5.60;99.30;;;;;;4994917;28;20565;-77
2021/11/03 04:03:06;;;;;;;6.65;4.50;;;5.60;99.40;;;;;;4976501;28;20126;-77
2021/11/03 04:05:33;;;;;;;6.20;4.30;;;5.70;99.40;;;;;;4984972;28;20471;-77
2021/11/03 04:07:59;;;;;;;6.43;4.20;;;5.70;99.30;;;;;;4987271;28;20430;-77
2021/11/03 04:10:24;;;;;;;5.28;3.78;;;5.70;99.40;;;;;;4979017;28;20021;-77
2021/11/03 04:12:50;;;;;;;8.73;4.90;;;5.70;99.40;;;;;;4994942;28;20380;-77
2021/11/03 04:15:16;;;;;;;6.88;4.25;;;5.70;99.50;;;;;;4993358;28;20050;-76
2021/11/03 04:17:42;;;;;;;8.70;4.97;;;5.80;99.50;;;;;;4993840;28;20061;-77
2021/11/03 04:20:12;;;;;;;6.53;4.55;;;5.70;99.40;;;;;;5000827;28;20034;-76
2021/11/03 04:22:38;;;;;;;8.05;5.00;;;5.80;99.40;;;;;;4998992;28;20030;-76
2021/11/03 04:25:06;;;;;;;7.38;5.00;;;5.70;99.40;;;;;;4998517;28;20056;-76
2021/11/03 04:27:31;;;;;;;8.55;5.47;;;5.70;99.30;;;;;;4992557;28;20056;-76
2021/11/03 04:29:57;;;;;;;9.75;5.45;;;5.70;99.40;;;;;;4998794;28;20112;-76
2021/11/03 04:32:23;;;;;;;8.75;5.50;;;5.70;99.40;;;;;;5000190;28;20025;-76
2021/11/03 04:34:49;;;;;;;8.48;5.43;;;5.70;99.40;;;;;;5030139;28;20433;-77
2021/11/03 04:37:15;;;;;;;8.57;5.20;;;5.70;99.40;;;;;;4995330;28;20109;-76
2021/11/03 04:39:40;;;;;;;9.02;6.03;;;5.70;99.40;;;;;;4987733;28;20269;-76
2021/11/03 04:42:06;;;;;;;11.65;5.82;;;5.70;99.70;;;;;;5002603;28;20053;-77
2021/11/03 04:44:32;;;;;;;10.15;5.70;;;5.70;99.40;;;;;;4998203;28;20375;-76
2021/11/03 04:46:58;;;;;;;11.75;6.30;;;5.60;99.30;;;;;;5012378;28;20036;-77
2021/11/03 04:49:23;;;;;;;10.10;6.25;;;5.60;99.30;;;;;;5017448;28;20057;-77
2021/11/03 04:51:49;;;;;;;11.48;5.53;;;5.60;99.40;;;;;;4996312;28;20402;-76
2021/11/03 04:54:14;;;;;;;9.93;6.10;;;5.60;99.40;;;;;;4998232;28;20128;-76
2021/11/03 04:56:40;;;;;;;10.40;5.90;;;5.60;99.50;;;;;;4998690;28;20501;-77
2021/11/03 04:59:06;;;;;;;10.95;6.15;;;5.60;99.50;;;;;;4988108;28;20100;-77
2021/11/03 05:01:32;;;;;;;7.85;5.75;;;5.60;99.60;;;;;;4981812;28;20400;-76
2021/11/03 05:03:58;;;;;;;8.13;5.85;;;5.70;99.60;;;;;;4996409;28;20029;-76
2021/11/03 05:06:26;;;;;;;11.13;5.97;;;5.70;99.60;;;;;;4993761;28;20034;-77
2021/11/03 05:08:53;;;;;;;13.82;6.43;;;5.70;99.60;;;;;;4992714;28;20030;-77
2021/11/03 05:11:19;;;;;;;10.77;6.53;;;5.70;99.50;;;;;;4998592;28;20030;-76
2021/11/03 05:13:45;;;;;;;8.43;5.45;;;5.70;99.50;;;;;;4990563;28;20471;-76
2021/11/03 05:16:18;;;;;;;11.93;6.28;;;5.70;99.60;;;;;;4990297;28;20114;-76
2021/11/03 05:18:44;;;;;;;8.27;5.90;;;5.70;99.60;;;;;;4983537;28;20029;-76
2021/11/03 05:21:11;;;;;;;9.52;6.38;;;5.70;99.70;;;;;;4983062;28;20036;-78
2021/11/03 05:23:38;;;;;;;12.35;6.38;;;5.80;99.70;;;;;;4995450;28;20187;-76
2021/11/03 05:26:04;;;;;;;12.15;6.53;;;5.80;99.60;;;;;;4981805;28;20030;-76
2021/11/03 05:28:30;;;;;;;12.75;6.80;;;5.80;99.50;;;;;;4997817;28;20057;-77
2021/11/03 05:30:56;;;;;;;10.68;6.78;;;5.70;99.50;;;;;;5019251;28;20470;-76
2021/11/03 05:33:22;;;;;;;9.02;6.22;;;5.70;99.40;;;;;;5007580;28;20022;-73
2021/11/03 05:35:47;;;;;;;10.63;6.35;;;5.60;99.40;;;;;;5010421;28;20065;-73
2021/11/03 05:38:13;;;;;;;10.13;6.80;;;5.60;99.40;;;;;;5005136;28;20033;-73
2021/11/03 05:40:39;;;;;;;8.98;6.40;;;5.60;99.50;;;;;;5011944;28;20018;-73
2021/11/03 05:43:05;;;;;;;13.02;7.03;;;5.60;99.60;;;;;;5000067;28;20027;-73
2021/11/03 05:45:31;;;;;;;14.43;7.70;;;5.60;99.50;;;;;;4993575;28;20026;-75
2021/11/03 05:47:56;;;;;;;16.25;10.10;;;5.60;99.80;;;;;;5005800;28;20045;-74
2021/11/03 05:50:30;;;;;;;10.93;7.20;;;5.60;99.60;;;;;;5013634;28;20018;-76
2021/11/03 05:52:56;;;;;;;10.18;6.70;;;5.60;99.60;;;;;;4981672;28;20030;-74
2021/11/03 05:55:22;;;;;;;9.10;6.35;;;5.60;99.60;;;;;;4976274;28;20033;-75
2021/11/03 05:57:49;;;;;;;9.40;6.30;;;5.60;99.60;;;;;;4987390;28;20447;-77
2021/11/03 06:00:22;;;;;;;11.73;6.78;;;5.70;99.70;;;;;;4999233;28;20072;-75
2021/11/03 06:02:48;;;;;;;10.38;6.13;;;5.60;99.70;;;;;;5001467;28;20035;-75
2021/11/03 06:05:15;;;;;;;11.63;6.90;;;5.60;99.60;;;;;;4975805;28;20077;-76
2021/11/03 06:07:48;;;;;;;11.85;6.88;;;5.60;99.60;;;;;;5001989;28;20395;-76
2021/11/03 06:10:16;;;;;;;10.27;6.68;;;5.70;99.70;;;;;;4997715;28;20026;-76
2021/11/03 06:12:42;;;;;;;12.73;6.93;;;5.70;99.70;;;;;;5013710;28;20109;-76
2021/11/03 06:15:08;;;;;;;10.48;6.57;;;5.70;99.60;;;;;;5002909;28;20100;-76
2021/11/03 06:17:34;;;;;;;10.63;6.97;;;5.60;99.60;;;;;;5008942;28;20507;-76
2021/11/03 06:20:00;;;;;;;11.80;6.65;;;5.60;99.60;;;;;;5008451;28;20030;-75
2021/11/03 06:22:25;;;;;;;8.95;6.40;;;5.70;99.60;;;;;;4975441;28;20026;-75
2021/11/03 06:24:52;;;;;;;9.27;6.65;;;5.70;99.60;;;;;;4975331;28;20022;-76
2021/11/03 06:27:17;;;;;;;9.77;6.50;;;5.60;99.60;;;;;;4998957;28;20064;-76
2021/11/03 06:29:43;;;;;;;10.13;7.10;;;5.60;99.60;;;;;;4984535;28;20109;-77
2021/11/03 06:32:09;;;;;;;11.32;7.15;;;5.60;99.60;;;;;;4975826;28;20038;-76
2021/11/03 06:34:34;;;;;;;11.55;7.18;;;5.60;99.60;;;;;;4992983;28;20022;-75
2021/11/03 06:37:00;;;;;;;11.43;6.72;;;5.60;99.90;;;;;;5007349;28;20481;-75
2021/11/03 06:39:25;;;;;;;10.50;6.68;;;5.60;99.70;;;;;;4996117;28;20077;-76
2021/11/03 06:41:51;;;;;;;14.15;8.00;;;5.70;99.70;;;;;;4983080;28;20109;-76
2021/11/03 06:44:17;;;;;;;8.80;6.60;;;5.70;99.70;;;;;;5007509;28;20031;-77
2021/11/03 06:46:43;;;;;;;46.75;25.92;;;5.70;99.70;;;;;;4991850;28;20029;-74
2021/11/03 06:49:09;;;;;;;12.27;7.55;;;5.80;99.70;;;;;;4996791;28;20033;-75
2021/11/03 06:51:35;;;;;;;11.52;6.00;;;5.80;99.70;;;;;;5016267;28;20029;-76
2021/11/03 06:54:02;;;;;;;8.15;5.47;;;5.80;99.70;;;;;;4974423;28;20034;-74
2021/11/03 06:56:28;;;;;;;8.70;5.10;;;5.80;99.60;;;;;;4992646;28;20018;-74
2021/11/03 06:58:53;;;;;;;7.43;4.60;;;5.90;99.60;;;;;;4974804;28;20033;-75
2021/11/03 07:01:19;;;;;;;7.53;4.13;;;5.90;99.60;;;;;;4979610;28;20359;-75
2021/11/03 07:03:46;;;;;;;7.40;4.03;;;5.90;99.60;;;;;;5011189;28;20083;-76
2021/11/03 07:06:13;;;;;;;9.05;4.68;;;5.90;99.60;;;;;;4997932;28;20038;-76
2021/11/03 07:08:38;;;;;;;5.85;4.10;;;5.90;99.50;;;;;;5004775;28;20033;-76
2021/11/03 07:11:04;;;;;;;5.50;4.40;;;6.00;99.50;;;;;;5004775;28;20037;-75
2021/11/03 07:13:30;;;;;;;7.95;4.45;;;6.00;99.60;;;;;;5001627;28;20049;-76
2021/11/03 07:15:56;;;;;;;5.10;4.45;;;6.10;99.60;;;;;;4996202;28;20528;-77
2021/11/03 07:18:23;;;;;;;8.60;4.10;;;6.10;99.60;;;;;;4998510;28;20030;-77
2021/11/03 07:20:49;;;;;;;4.00;3.60;;;6.30;99.50;;;;;;5004394;28;20029;-77
2021/11/03 07:23:17;;;;;;;3.65;2.97;;;6.50;99.60;;;;;;5010509;28;20026;-76
2021/11/03 07:25:43;;;;;;;5.25;2.72;;;6.90;99.40;;;;;;5002686;28;20099;-77
2021/11/03 07:28:11;;;;;;;2.58;2.38;;;7.00;99.50;;;;;;5000114;28;20526;-77
2021/11/03 07:30:39;;;;;;;2.65;2.25;;;7.10;99.40;;;;;;5006134;28;20022;-78
2021/11/03 07:33:06;;;;;;;3.35;2.30;;;7.10;99.20;;;;;;5010314;28;20025;-75
2021/11/03 07:35:33;;;;;;;2.90;2.70;;;7.10;99.10;;;;;;5000535;28;20037;-77
2021/11/03 07:37:59;;;;;;;4.50;3.10;;;7.00;99.00;;;;;;4999395;28;20117;-77
2021/11/03 07:40:30;;;;;;;3.65;3.17;;;7.00;99.00;;;;;;4996437;28;20021;-74
2021/11/03 07:42:58;;;;;;;6.60;3.33;;;7.00;99.00;;;;;;5003082;28;20049;-76
2021/11/03 07:45:24;;;;;;;6.75;4.13;;;7.00;99.00;;;;;;5002133;28;20433;-77
2021/11/03 07:47:50;;;;;;;6.93;4.53;;;7.00;99.00;;;;;;4979683;28;20035;-77
2021/11/03 07:50:21;;;;;;;7.35;4.57;;;7.00;99.00;;;;;;4998153;28;20030;-77
2021/11/03 07:52:47;;;;;;;6.32;4.95;;;7.00;99.00;;;;;;4975684;28;20030;-75
2021/11/03 07:55:13;;;;;;;6.70;4.63;;;7.00;99.00;;;;;;4983886;28;20533;-77
2021/11/03 07:57:39;;;;;;;5.15;4.63;;;7.00;99.00;;;;;;5006291;28;20037;-77
2021/11/03 08:00:08;;;;;;;8.43;5.57;;;6.90;99.00;;;;;;5002346;28;20019;-77
2021/11/03 08:02:34;;;;;;;6.07;4.90;;;6.90;99.10;;;;;;4998525;28;20030;-76
2021/11/03 08:04:59;;;;;;;8.18;5.13;;;6.90;99.10;;;;;;5000017;28;20101;-77
2021/11/03 08:07:25;;;;;;;5.88;5.00;;;6.90;99.10;;;;;;4996767;28;20115;-77
2021/11/03 08:09:51;;;;;;;7.63;4.72;;;6.90;99.10;;;;;;4990629;28;20430;-76
2021/11/03 08:12:19;;;;;;;8.02;5.35;;;6.90;99.10;;;;;;4992073;28;20025;-75
2021/11/03 08:14:44;;;;;;;6.10;4.57;;;6.90;99.20;;;;;;5009941;28;20088;-75
2021/11/03 08:17:16;;;;;;;6.80;4.80;;;6.90;99.30;;;;;;5010698;28;20030;-74
2021/11/03 08:19:48;;;;;;;6.15;5.28;;;6.90;99.30;;;;;;5010773;28;20021;-74
2021/11/03 08:22:19;;;;;;;6.30;5.30;;;7.00;99.40;;;;;;5004527;28;20056;-75
2021/11/03 08:24:45;;;;;;;8.52;5.00;;;7.10;99.40;;;;;;5000254;28;20398;-75
2021/11/03 08:27:11;;;;;;;5.20;4.50;;;7.10;99.50;;;;;;5001373;28;20029;-73
2021/11/03 08:29:39;;;;;;;7.60;4.97;;;7.10;99.40;;;;;;4985133;28;20033;-73
2021/11/03 08:32:11;;;;;;;6.72;4.75;;;7.20;99.30;;;;;;5007063;28;20036;-74
2021/11/03 08:34:38;;;;;;;5.78;4.07;;;7.20;99.30;;;;;;4989557;28;20019;-76
2021/11/03 08:37:14;;;;;;;6.70;4.13;;;7.20;99.20;;;;;;5005952;28;20191;-76
2021/11/03 08:39:42;;;;;;;6.40;3.80;;;7.30;99.30;;;;;;5012991;28;20022;-73
2021/11/03 08:42:08;;;;;;;4.85;3.45;;;7.40;99.30;;;;;;4973978;28;20390;-76
2021/11/03 08:44:36;;;;;;;3.53;3.00;;;7.40;99.30;;;;;;5008580;28;20032;-76
2021/11/03 08:47:04;;;;;;;3.05;2.60;;;7.50;99.30;;;;;;5003405;28;20485;-76
2021/11/03 08:49:30;;;;;;;3.13;2.65;;;7.50;99.20;;;;;;5012752;28;20068;-76
2021/11/03 08:51:57;;;;;;;3.08;2.78;;;7.50;99.10;;;;;;4994437;28;20172;-74
2021/11/03 08:54:22;;;;;;;4.57;2.83;;;7.50;99.00;;;;;;5012141;28;20351;-75
2021/11/03 08:56:48;;;;;;;2.53;2.33;;;7.60;99.10;;;;;;4985840;28;20034;-74
2021/11/03 08:59:14;;;;;;;4.95;2.80;;;7.60;99.00;;;;;;4998877;28;20033;-74
2021/11/03 09:01:40;;;;;;;3.33;2.40;;;7.60;99.00;;;;;;5012002;28;20020;-74
2021/11/03 09:04:09;;;;;;;3.65;2.50;;;7.60;99.10;;;;;;5010999;28;20517;-74
2021/11/03 09:06:35;;;;;;;4.20;2.72;;;7.70;99.10;;;;;;5020227;28;20048;-76
2021/11/03 09:09:02;;;;;;;4.32;2.70;;;7.70;99.10;;;;;;4991052;28;20021;-76
2021/11/03 09:11:28;;;;;;;3.55;2.38;;;7.70;99.00;;;;;;4998341;28;20038;-75
2021/11/03 09:13:53;;;;;;;2.40;2.20;;;7.70;98.90;;;;;;5009140;28;20024;-76
2021/11/03 09:16:20;;;;;;;3.47;2.00;;;7.70;98.90;;;;;;4988601;28;20018;-76
2021/11/03 09:18:46;;;;;;;2.25;2.00;;;7.70;98.80;;;;;;5004605;28;20486;-76
2021/11/03 09:21:12;;;;;;;2.47;1.63;;;7.70;98.70;;;;;;5010785;28;20037;-74
2021/11/03 09:23:38;;;;;;;3.08;1.90;;;7.70;98.70;;;;;;5016480;28;22000;-75
2021/11/03 09:26:04;;;;;;;1.67;1.58;;;7.70;98.70;;;;;;5003272;28;20041;-76
2021/11/03 09:28:32;;;;;;;2.03;1.52;;;7.60;98.60;;;;;;5013744;28;20145;-74
2021/11/03 09:31:02;;;;;;;3.50;1.40;;;7.60;98.50;;;;;;4991995;28;20033;-73
2021/11/03 09:33:27;;;;;;;3.03;1.63;;;7.60;98.50;;;;;;5006347;28;20014;-74
2021/11/03 09:35:55;;;;;;;2.15;1.50;;;7.70;98.50;;;;;;4995108;28;20390;-73
2021/11/03 09:38:25;;;;;;;5.32;1.70;;;7.70;98.50;;;;;;5003985;28;20025;-75
2021/11/03 09:40:56;;;;;;;1.58;1.40;;;7.80;98.40;;;;;;5015629;28;20069;-76
2021/11/03 09:43:29;;;;;;;2.00;1.38;;;7.70;98.30;;;;;;5023533;28;20021;-74
2021/11/03 09:45:57;;;;;;;1.45;1.35;;;7.80;98.30;;;;;;5008082;28;20032;-75
2021/11/03 09:48:34;;;;;;;1.50;1.40;;;7.80;98.50;;;;;;4993350;28;20116;-73
2021/11/03 09:51:04;;;;;;;1.55;1.45;;;7.80;98.20;;;;;;5025985;28;20048;-77
2021/11/03 09:53:50;;;;;;;1.98;1.63;;;7.90;98.50;;;;;;5011745;28;20076;-76
2021/11/03 09:56:24;;;;;;;1.60;1.50;;;8.00;98.30;;;;;;4998899;28;20380;-74
2021/11/03 09:59:13;;;;;;;2.35;1.30;;;8.00;98.20;;;;;;4982457;28;20024;-74
2021/11/03 10:01:45;;;;;;;1.35;1.25;;;8.10;98.10;;;;;;4992888;28;20057;-75
2021/11/03 10:04:36;;;;;;;1.40;1.30;;;8.10;98.10;;;;;;5003730;28;20030;-74
2021/11/03 10:07:29;;;;;;;3.22;1.15;;;8.20;98.10;;;;;;5013917;28;20151;-74
2021/11/03 10:09:55;;;;;;;1.40;1.30;;;8.30;98.00;;;;;;4987132;28;20022;-75
2021/11/03 10:12:21;;;;;;;3.88;1.30;;;8.30;97.90;;;;;;5012584;28;20116;-76
2021/11/03 10:14:47;;;;;;;1.30;1.15;;;8.40;97.90;;;;;;5011303;28;20024;-76
2021/11/03 10:17:30;;;;;;;1.50;1.40;;;8.40;97.90;;;;;;4990343;28;20088;-76
2021/11/03 10:19:56;;;;;;;4.60;1.40;;;8.50;97.80;;;;;;4993984;28;20390;-76
2021/11/03 10:22:42;;;;;;;1.10;1.10;;;8.50;97.90;;;;;;5016277;28;20062;-76
2021/11/03 10:25:15;;;;;;;1.23;1.10;;;8.60;97.80;;;;;;5013861;28;20437;-76
2021/11/03 10:27:51;;;;;;;1.55;1.30;;;8.60;97.80;;;;;;5020049;28;20022;-76
2021/11/03 10:30:25;;;;;;;1.70;1.40;;;8.70;97.80;;;;;;5015989;28;20113;-76
2021/11/03 10:32:52;;;;;;;1.65;1.45;;;8.70;97.70;;;;;;5010011;28;20496;-77
2021/11/03 10:35:46;;;;;;;1.77;1.42;;;8.70;97.60;;;;;;5001407;28;20025;-77
2021/11/03 10:38:19;;;;;;;1.75;1.48;;;8.70;97.50;;;;;;5020713;28;20104;-76
2021/11/03 10:41:02;;;;;;;1.10;1.00;;;8.70;97.40;;;;;;5012781;28;20020;-76
2021/11/03 10:43:42;;;;;;;2.22;1.38;;;8.70;97.40;;;;;;5021238;28;20029;-74
2021/11/03 10:46:17;;;;;;;1.60;1.50;;;8.70;97.40;;;;;;5011016;28;20048;-75
2021/11/03 10:48:46;;;;;;;2.00;1.23;;;8.70;97.60;;;;;;4992528;28;20109;-74
2021/11/03 10:51:18;;;;;;;1.42;1.20;;;8.70;97.30;;;;;;5021226;28;20488;-76
2021/11/03 10:54:02;;;;;;;6.10;1.10;;;8.80;97.30;;;;;;4994386;28;20064;-76
2021/11/03 10:56:31;;;;;;;2.20;1.33;;;8.80;97.30;;;;;;5001742;28;20025;-74
2021/11/03 10:59:25;;;;;;;1.75;1.40;;;8.80;97.30;;;;;;5001703;28;20033;-74
2021/11/03 11:01:52;;;;;;;1.60;1.50;;;8.80;97.20;;;;;;4995557;28;20033;-74
2021/11/03 11:04:31;;;;;;;2.03;1.80;;;8.80;97.20;;;;;;4992725;28;20112;-76
2021/11/03 11:07:15;;;;;;;1.35;1.25;;;8.90;97.20;;;;;;5013365;28;20029;-76
2021/11/03 11:09:53;;;;;;;1.75;1.35;;;8.90;97.20;;;;;;5005044;28;20033;-74
2021/11/03 11:12:29;;;;;;;2.35;1.30;;;8.90;97.10;;;;;;5023311;28;20025;-75
2021/11/03 11:15:27;;;;;;;1.75;1.30;;;8.90;97.10;;;;;;5025372;28;20017;-76
2021/11/03 11:18:32;;;;;;;5.60;2.90;;;8.90;97.00;;;;;;5000180;28;20029;-76
2021/11/03 11:21:02;;;;;;;1.98;1.70;;;8.90;97.00;;;;;;4993745;28;20061;-76
2021/11/03 11:23:43;;;;;;;1.30;1.20;;;8.90;97.00;;;;;;4998757;28;20390;-76
2021/11/03 11:26:54;;;;;;;1.45;1.17;;;9.00;96.90;;;;;;5012073;28;20744;-76
2021/11/03 11:29:52;;;;;;;1.05;1.02;;;8.90;96.80;;;;;;4993626;28;20049;-74
2021/11/03 11:32:21;;;;;;;1.30;1.20;;;9.00;96.80;;;;;;4995597;28;20039;-74
2021/11/03 11:35:00;;;;;;;1.27;1.17;;;9.00;96.80;;;;;;4998447;28;20079;-74
2021/11/03 11:37:45;;;;;;;1.30;1.20;;;9.00;96.70;;;;;;4995221;28;20040;-74
2021/11/03 11:40:25;;;;;;;1.40;1.17;;;9.00;96.70;;;;;;5014115;28;20022;-74
2021/11/03 11:43:05;;;;;;;1.30;1.20;;;9.00;96.70;;;;;;4994357;28;20470;-74
2021/11/03 11:45:36;;;;;;;2.10;1.30;;;9.00;96.80;;;;;;4995984;28;20030;-74
2021/11/03 11:48:16;;;;;;;1.40;1.30;;;9.10;96.80;;;;;;4989696;28;20391;-74
2021/11/03 11:50:57;;;;;;;1.25;1.15;;;9.00;96.70;;;;;;5015657;28;20029;-73
2021/11/03 11:53:45;;;;;;;1.10;1.00;;;9.10;96.70;;;;;;4995447;28;20185;-73
2021/11/03 11:56:19;;;;;;;0.98;0.98;;;9.10;96.80;;;;;;5001811;28;20539;-74
2021/11/03 11:59:05;;;;;;;2.72;1.33;;;9.10;96.80;;;;;;4991056;28;20021;-73
2021/11/03 12:01:56;;;;;;;2.30;1.70;;;9.10;96.80;;;;;;5015547;28;20029;-74
2021/11/03 12:04:24;;;;;;;1.02;1.02;;;9.20;96.80;;;;;;5003741;28;20061;-73
2021/11/03 12:06:53;;;;;;;1.33;1.20;;;9.20;96.80;;;;;;4992845;28;20109;-73
2021/11/03 12:09:25;;;;;;;2.53;1.30;;;9.30;97.10;;;;;;5015548;28;20501;-74
2021/11/03 12:11:57;;;;;;;2.47;1.30;;;9.30;96.80;;;;;;5009761;28;20022;-73
2021/11/03 12:14:49;;;;;;;1.30;1.20;;;9.30;96.80;;;;;;4995799;28;20025;-74
2021/11/03 12:17:36;;;;;;;2.95;1.50;;;9.30;96.70;;;;;;5002238;28;20029;-74
2021/11/03 12:20:27;;;;;;;2.15;1.40;;;9.40;96.70;;;;;;5019179;28;20698;-74
2021/11/03 12:22:57;;;;;;;1.65;1.05;;;9.40;96.60;;;;;;5012337;28;20724;-74
2021/11/03 12:25:23;;;;;;;2.58;1.30;;;9.40;96.70;;;;;;5010817;28;20031;-73
2021/11/03 12:28:08;;;;;;;3.00;1.40;;;9.40;96.70;;;;;;4994334;28;20080;-73
2021/11/03 12:30:42;;;;;;;1.85;1.20;;;9.50;96.60;;;;;;5004079;28;20034;-74
2021/11/03 12:33:11;;;;;;;3.22;1.30;;;9.50;96.60;;;;;;4990664;28;20042;-73
2021/11/03 12:35:40;;;;;;;1.63;1.52;;;9.50;96.60;;;;;;5008885;28;20431;-73
2021/11/03 12:38:12;;;;;;;4.25;1.40;;;9.60;96.60;;;;;;5012248;28;20501;-74
2021/11/03 12:40:37;;;;;;;2.08;1.63;;;9.60;96.60;;;;;;5006587;28;20030;-73
2021/11/03 12:43:09;;;;;;;1.73;1.13;;;9.60;96.60;;;;;;4996904;28;20042;-74
2021/11/03 12:45:40;;;;;;;1.17;1.07;;;9.60;96.60;;;;;;5005868;28;20033;-74
2021/11/03 12:48:42;;;;;;;1.40;1.30;;;9.60;96.60;;;;;;5010188;28;20112;-73
2021/11/03 12:51:30;;;;;;;1.30;1.20;;;9.70;96.60;;;;;;4980761;28;20037;-74
2021/11/03 12:54:01;;;;;;;2.65;1.30;;;9.70;96.60;;;;;;5006647;28;20391;-75
2021/11/03 12:56:30;;;;;;;1.40;1.30;;;9.70;96.60;;;;;;5017392;28;20410;-74
2021/11/03 12:59:00;;;;;;;3.35;1.60;;;9.70;96.60;;;;;;5022623;28;20328;-74
2021/11/03 13:01:33;;;;;;;3.00;2.20;;;9.70;96.60;;;;;;5004043;28;20798;-74
2021/11/03 13:04:03;;;;;;;3.47;2.08;;;9.70;96.60;;;;;;5012528;28;20080;-74
2021/11/03 13:06:37;;;;;;;4.13;1.90;;;9.60;96.60;;;;;;5010469;28;20048;-74
2021/11/03 13:09:04;;;;;;;2.42;1.60;;;9.70;96.60;;;;;;5016936;28;20029;-74